aviador You're here:

KVNC Decoded Metar

in
Report Time2018-01-18 09:35:00
UTC Time2018-01-18 09:57:36
Flight Rules vfr VFR
Wind010° at 11 kt
W.Decomp.*RWY 05: 8.4 kt HW 7.1 kt LCW
RWY 31: 5.5 kt HW 9.5 kt RCW
W.Rank010° ranks 32
Current wind is above 010° avg. (6.2)
Visibility9999 m
Phenomena:N/A
Clouds:N/A
Expected CloudBase > 3,200 ft AGL from Temp-Dew spread
CeilingNone
Temp02°C
Dew Point-6°C (56% RH)
AAT-4.7°C
QNH1028 hPa
Raw Report
KVNC 180935Z AUTO 01011KT 10SM 02/M06 A3035 RMK AO2=

Extra information for KVNC:More info

Social comments